Weather History for Fairfield, IA

Change the Weather History Date:

Saturday, December 7, 2013

  Actual Average Record
Temperature  
Mean Temperature 8 °F -  
Max Temperature 17 °F 36 °F 57 °F (1991)
Min Temperature 0 °F 21 °F -11 °F (1976)
Degree Days  
Heating Degree Days 56    
Moisture  
Dew Point -4 °F    
Average Humidity 60    
Maximum Humidity 78    
Minimum Humidity 32    
Precipitation  
Precipitation 0.00 in - - ()
Sea Level Pressure  
Sea Level Pressure 30.65 in    
Wind  
Wind Speed 8 mph (North)    
Max Wind Speed 13 mph    
Max Gust Speed 12 mph    
Visibility 10 miles    
Events      
Averages and records for this station are not official NWS values.
T = Trace of Precipitation, MM = Missing Value Source: NWS Daily Summary

Daily Weather History Graph

Daily Weather History Graph

Search for Another Location

Airport:

Trip Planner

Search our weather history database for the weather conditions in past years. The results will help you decide how hot, cold, wet, or windy it might be!

Date:

Astronomy

Dec. 07, 2013 Rise Set
Actual Time 7:19 AM CST 4:39 PM CST
Civil Twilight 6:48 AM CST 5:10 PM CST
Nautical Twilight 6:14 AM CST 5:44 PM CST
Astronomical Twilight 5:40 AM CST 6:17 PM CST
Moon 11:03 AM CST (12/7) 10:23 PM CST (12/7)
Length of Visible Light 10h 21m
Length of Day
9h 19m
Waxing Crescent, 29% of the Moon is Illuminated
Dec 7
Waxing Crescent
Dec 9
First Quarter
Dec 17
Full
Dec 25
Last Quarter
Jan 1
New

Hourly Weather History & Observations

Time (CST) Temp. Windchill Dew Point Humidity Pressure Visibility Wind Dir Wind Speed Gust Speed Precip Events Conditions
12:15 AM 6.8 °F -7.8 °F -0.4 °F 72% 30.63 in 10.0 mi NW 10.4 mph - N/A   Clear
12:35 AM 6.8 °F -4.8 °F -0.4 °F 72% 30.64 in 10.0 mi NW 6.9 mph - N/A   Clear
12:55 AM 5.0 °F -9.1 °F -2.2 °F 72% 30.64 in 10.0 mi NW 9.2 mph - N/A   Clear
1:15 AM 5.0 °F -10.8 °F -2.2 °F 72% 30.64 in 10.0 mi NW 11.5 mph - N/A   Clear
1:35 AM 5.0 °F -10.0 °F -2.2 °F 72% 30.64 in 10.0 mi NW 10.4 mph - N/A   Clear
1:55 AM 5.0 °F -9.1 °F -2.2 °F 72% 30.65 in 10.0 mi NW 9.2 mph - N/A   Clear
2:15 AM 3.2 °F -11.3 °F -2.2 °F 78% 30.65 in 10.0 mi NW 9.2 mph - N/A   Clear
2:35 AM 3.2 °F -11.3 °F -2.2 °F 78% 30.65 in 10.0 mi NW 9.2 mph - N/A   Clear
2:55 AM 3.2 °F -12.2 °F -4.0 °F 72% 30.66 in 10.0 mi NNW 10.4 mph - N/A   Clear
3:15 AM 3.2 °F -12.2 °F -4.0 °F 72% 30.67 in 10.0 mi NW 10.4 mph - N/A   Clear
3:35 AM 3.2 °F -12.2 °F -4.0 °F 72% 30.67 in 10.0 mi NW 10.4 mph - N/A   Clear
3:55 AM 3.2 °F -11.3 °F -4.0 °F 72% 30.68 in 10.0 mi NW 9.2 mph - N/A   Clear
4:15 AM 1.4 °F -12.5 °F -4.0 °F 78% 30.68 in 10.0 mi NW 8.1 mph - N/A   Clear
4:35 AM 1.4 °F -13.5 °F -5.8 °F 72% 30.68 in 10.0 mi NW 9.2 mph - N/A   Clear
4:55 AM 1.4 °F -13.5 °F -5.8 °F 72% 30.69 in 10.0 mi NW 9.2 mph - N/A   Clear
5:15 AM 1.4 °F -14.5 °F -5.8 °F 72% 30.69 in 10.0 mi NNW 10.4 mph - N/A   Clear
5:35 AM 1.4 °F -11.3 °F -5.8 °F 72% 30.69 in 10.0 mi NNW 6.9 mph - N/A   Clear
5:55 AM 1.4 °F -11.3 °F -7.6 °F 66% 30.70 in 10.0 mi NNW 6.9 mph - N/A   Clear
6:15 AM 1.4 °F -13.5 °F -7.6 °F 66% 30.71 in 10.0 mi NNW 9.2 mph - N/A   Clear
6:35 AM -0.4 °F -12.0 °F -7.6 °F 72% 30.71 in 10.0 mi NNW 5.8 mph - N/A   Clear
6:55 AM -0.4 °F -12.0 °F -7.6 °F 72% 30.71 in 10.0 mi NW 5.8 mph - N/A   Clear
7:15 AM -0.4 °F -10.4 °F -7.6 °F 72% 30.72 in 10.0 mi WNW 4.6 mph - N/A   Clear
7:35 AM -0.4 °F -10.4 °F -7.6 °F 72% 30.73 in 10.0 mi NW 4.6 mph - N/A   Clear
7:55 AM -0.4 °F -10.4 °F -7.6 °F 72% 30.73 in 10.0 mi WNW 4.6 mph - N/A   Clear
8:15 AM 1.4 °F -8.3 °F -5.8 °F 72% 30.73 in 10.0 mi NW 4.6 mph - N/A   Clear
8:35 AM 1.4 °F -11.3 °F -5.8 °F 72% 30.73 in 10.0 mi NNW 6.9 mph - N/A   Clear
8:55 AM 3.2 °F -10.3 °F -5.8 °F 66% 30.75 in 10.0 mi NW 8.1 mph - N/A   Clear
9:15 AM 3.2 °F -9.1 °F -5.8 °F 66% 30.75 in 10.0 mi NW 6.9 mph - N/A   Clear
9:35 AM 5.0 °F -6.9 °F -4.0 °F 66% 30.76 in 10.0 mi NW 6.9 mph - N/A   Clear
9:55 AM 5.0 °F -5.6 °F -4.0 °F 66% 30.77 in 10.0 mi Variable 5.8 mph 11.5 mph N/A   Clear
10:15 AM 6.8 °F -3.5 °F -4.0 °F 61% 30.76 in 10.0 mi Variable 5.8 mph - N/A   Clear
10:35 AM 6.8 °F -4.8 °F -4.0 °F 61% 30.76 in 10.0 mi NNW 6.9 mph - N/A   Clear
10:55 AM 8.6 °F -2.6 °F -4.0 °F 57% 30.74 in 10.0 mi North 6.9 mph - N/A   Clear
11:15 AM 8.6 °F -3.7 °F -4.0 °F 57% 30.73 in 10.0 mi North 8.1 mph - N/A   Clear
11:35 AM 10.4 °F -1.5 °F -4.0 °F 52% 30.73 in 10.0 mi NW 8.1 mph - N/A   Clear
11:55 AM 12.2 °F 1.7 °F -2.2 °F 53% 30.71 in 10.0 mi North 6.9 mph - N/A   Clear
12:15 PM 12.2 °F 2.9 °F -4.0 °F 48% 30.70 in 10.0 mi NNW 5.8 mph - N/A   Clear
12:35 PM 14.0 °F 2.9 °F -4.0 °F 45% 30.70 in 10.0 mi North 8.1 mph - N/A   Clear
12:55 PM 14.0 °F 3.9 °F -4.0 °F 45% 30.70 in 10.0 mi NNW 6.9 mph - N/A   Clear
1:15 PM 14.0 °F 6.5 °F -4.0 °F 45% 30.68 in 10.0 mi Variable 4.6 mph - N/A   Clear
1:35 PM 15.8 °F 5.1 °F -4.0 °F 41% 30.66 in 10.0 mi North 8.1 mph - N/A   Clear
1:55 PM 15.8 °F 2.1 °F -4.0 °F 41% 30.65 in 10.0 mi North 12.7 mph - N/A   Clear
2:15 PM 17.6 °F 4.3 °F -4.0 °F 38% 30.63 in 10.0 mi NNE 12.7 mph - N/A   Clear
2:35 PM 17.6 °F 6.4 °F -5.8 °F 35% 30.63 in 10.0 mi NNE 9.2 mph - N/A   Clear
2:55 PM 17.6 °F 6.4 °F -4.0 °F 38% 30.63 in 10.0 mi NNE 9.2 mph - N/A   Clear
3:15 PM 17.6 °F 5.7 °F -5.8 °F 35% 30.62 in 10.0 mi NNE 10.4 mph - N/A   Clear
3:35 PM 17.6 °F 7.3 °F -7.6 °F 32% 30.61 in 10.0 mi NE 8.1 mph - N/A   Clear
3:55 PM 15.8 °F 4.2 °F -5.8 °F 38% 30.61 in 10.0 mi NE 9.2 mph - N/A   Clear
4:15 PM 15.8 °F 6.1 °F -5.8 °F 38% 30.61 in 10.0 mi NE 6.9 mph - N/A   Clear
4:35 PM 14.0 °F 3.9 °F -5.8 °F 41% 30.60 in 10.0 mi NE 6.9 mph - N/A   Clear
4:55 PM 12.2 °F 1.7 °F -5.8 °F 45% 30.60 in 10.0 mi NNE 6.9 mph - N/A   Clear
5:15 PM 10.4 °F -0.4 °F -4.0 °F 52% 30.59 in 10.0 mi NE 6.9 mph - N/A   Clear
5:35 PM 10.4 °F -0.4 °F -4.0 °F 52% 30.59 in 10.0 mi NNE 6.9 mph - N/A   Clear
5:55 PM 8.6 °F -1.3 °F -4.0 °F 57% 30.59 in 10.0 mi NNE 5.8 mph - N/A   Clear
6:15 PM 8.6 °F -2.6 °F -4.0 °F 57% 30.59 in 10.0 mi NE 6.9 mph - N/A   Clear
6:35 PM 8.6 °F -3.7 °F -4.0 °F 57% 30.58 in 10.0 mi NE 8.1 mph - N/A   Clear
6:55 PM 8.6 °F -2.6 °F -4.0 °F 57% 30.58 in 10.0 mi NE 6.9 mph - N/A   Clear
7:15 PM 6.8 °F -4.8 °F -4.0 °F 61% 30.57 in 10.0 mi NE 6.9 mph - N/A   Clear
7:35 PM 6.8 °F -4.8 °F -4.0 °F 61% 30.56 in 10.0 mi ENE 6.9 mph - N/A   Scattered Clouds
7:55 PM 8.6 °F -2.6 °F -2.2 °F 62% 30.57 in 10.0 mi ENE 6.9 mph - N/A   Overcast
8:15 PM 8.6 °F -1.3 °F -2.2 °F 62% 30.58 in 10.0 mi ENE 5.8 mph - N/A   Overcast
8:35 PM 10.4 °F 0.8 °F -0.4 °F 62% 30.57 in 10.0 mi NE 5.8 mph - N/A   Overcast
8:55 PM 10.4 °F -0.4 °F -2.2 °F 57% 30.56 in 10.0 mi NE 6.9 mph - N/A   Overcast
9:15 PM 12.2 °F 0.7 °F -2.2 °F 53% 30.56 in 10.0 mi ENE 8.1 mph - N/A   Overcast
9:35 PM 12.2 °F 1.7 °F -0.4 °F 57% 30.56 in 10.0 mi ENE 6.9 mph - N/A   Overcast
9:55 PM 12.2 °F 1.7 °F -0.4 °F 57% 30.57 in 10.0 mi ENE 6.9 mph - N/A   Overcast
10:15 PM 12.2 °F 2.9 °F -0.4 °F 57% 30.58 in 10.0 mi ENE 5.8 mph - N/A   Overcast
10:35 PM 12.2 °F 2.9 °F -0.4 °F 57% 30.57 in 10.0 mi ENE 5.8 mph - N/A   Overcast
10:55 PM 12.2 °F 2.9 °F 1.4 °F 62% 30.57 in 10.0 mi NE 5.8 mph - N/A   Overcast
11:15 PM 12.2 °F 0.7 °F -0.4 °F 57% 30.55 in 10.0 mi NE 8.1 mph - N/A   Overcast
11:35 PM 12.2 °F -0.2 °F -0.4 °F 57% 30.54 in 10.0 mi NE 9.2 mph - N/A   Overcast
11:55 PM 14.0 °F 0.5 °F 1.4 °F 57% 30.52 in 10.0 mi ENE 11.5 mph - N/A   Overcast